sensor_id;sensor_type;location;lat;lon;timestamp;P1;durP1;ratioP1;P2;durP2;ratioP2
40152;SDS011;26371;56.992;23.912;2023-02-01T00:01:23;14.40;;;3.45;;
40152;SDS011;26371;56.992;23.912;2023-02-01T00:03:51;12.90;;;3.22;;
40152;SDS011;26371;56.992;23.912;2023-02-01T00:06:20;13.98;;;3.10;;
40152;SDS011;26371;56.992;23.912;2023-02-01T00:08:49;11.98;;;2.55;;
40152;SDS011;26371;56.992;23.912;2023-02-01T00:11:21;11.65;;;3.53;;
40152;SDS011;26371;56.992;23.912;2023-02-01T00:13:50;13.73;;;3.25;;
40152;SDS011;26371;56.992;23.912;2023-02-01T00:16:21;14.83;;;3.73;;
40152;SDS011;26371;56.992;23.912;2023-02-01T00:18:51;14.40;;;3.40;;
40152;SDS011;26371;56.992;23.912;2023-02-01T00:21:24;15.32;;;4.93;;
40152;SDS011;26371;56.992;23.912;2023-02-01T00:23:52;14.57;;;3.92;;
40152;SDS011;26371;56.992;23.912;2023-02-01T00:26:24;12.02;;;3.83;;
40152;SDS011;26371;56.992;23.912;2023-02-01T00:28:57;13.15;;;3.45;;
40152;SDS011;26371;56.992;23.912;2023-02-01T00:31:26;10.13;;;2.50;;
40152;SDS011;26371;56.992;23.912;2023-02-01T00:33:55;13.95;;;4.05;;
40152;SDS011;26371;56.992;23.912;2023-02-01T00:36:23;17.08;;;3.83;;
40152;SDS011;26371;56.992;23.912;2023-02-01T00:38:52;11.93;;;3.22;;
40152;SDS011;26371;56.992;23.912;2023-02-01T00:41:22;13.57;;;3.20;;
40152;SDS011;26371;56.992;23.912;2023-02-01T00:43:51;12.73;;;3.58;;
40152;SDS011;26371;56.992;23.912;2023-02-01T00:46:20;14.02;;;3.60;;
40152;SDS011;26371;56.992;23.912;2023-02-01T00:48:49;13.10;;;3.38;;
40152;SDS011;26371;56.992;23.912;2023-02-01T00:51:18;14.73;;;3.85;;
40152;SDS011;26371;56.992;23.912;2023-02-01T00:53:49;10.65;;;2.92;;
40152;SDS011;26371;56.992;23.912;2023-02-01T00:56:18;6.47;;;2.40;;
40152;SDS011;26371;56.992;23.912;2023-02-01T00:58:48;12.20;;;3.57;;
40152;SDS011;26371;56.992;23.912;2023-02-01T01:03:46;12.93;;;3.63;;
40152;SDS011;26371;56.992;23.912;2023-02-01T01:06:18;9.15;;;2.30;;
40152;SDS011;26371;56.992;23.912;2023-02-01T01:08:50;15.18;;;3.47;;
40152;SDS011;26371;56.992;23.912;2023-02-01T01:11:20;8.95;;;2.88;;
40152;SDS011;26371;56.992;23.912;2023-02-01T01:13:51;9.23;;;2.70;;
40152;SDS011;26371;56.992;23.912;2023-02-01T01:16:21;7.72;;;2.78;;
40152;SDS011;26371;56.992;23.912;2023-02-01T01:18:51;16.52;;;3.67;;
40152;SDS011;26371;56.992;23.912;2023-02-01T01:23:49;14.75;;;3.60;;
40152;SDS011;26371;56.992;23.912;2023-02-01T01:26:19;17.08;;;5.28;;
40152;SDS011;26371;56.992;23.912;2023-02-01T01:28:50;15.48;;;3.28;;
40152;SDS011;26371;56.992;23.912;2023-02-01T01:31:20;14.85;;;3.80;;
40152;SDS011;26371;56.992;23.912;2023-02-01T01:33:49;15.80;;;3.92;;
40152;SDS011;26371;56.992;23.912;2023-02-01T01:36:19;16.60;;;4.30;;
40152;SDS011;26371;56.992;23.912;2023-02-01T01:38:48;18.70;;;4.32;;
40152;SDS011;26371;56.992;23.912;2023-02-01T01:41:19;10.50;;;3.17;;
40152;SDS011;26371;56.992;23.912;2023-02-01T01:43:51;15.18;;;3.47;;
40152;SDS011;26371;56.992;23.912;2023-02-01T01:46:23;17.85;;;4.63;;
40152;SDS011;26371;56.992;23.912;2023-02-01T01:48:55;14.40;;;3.83;;
40152;SDS011;26371;56.992;23.912;2023-02-01T01:51:29;16.50;;;3.70;;
40152;SDS011;26371;56.992;23.912;2023-02-01T01:54:06;11.75;;;3.35;;
40152;SDS011;26371;56.992;23.912;2023-02-01T01:56:39;17.77;;;4.45;;
40152;SDS011;26371;56.992;23.912;2023-02-01T01:59:10;13.25;;;3.70;;
40152;SDS011;26371;56.992;23.912;2023-02-01T02:01:40;17.05;;;4.28;;
40152;SDS011;26371;56.992;23.912;2023-02-01T02:04:09;13.30;;;3.00;;
40152;SDS011;26371;56.992;23.912;2023-02-01T02:06:39;12.55;;;3.60;;
40152;SDS011;26371;56.992;23.912;2023-02-01T02:09:12;16.08;;;3.72;;
40152;SDS011;26371;56.992;23.912;2023-02-01T02:11:40;13.45;;;3.83;;
40152;SDS011;26371;56.992;23.912;2023-02-01T02:14:09;12.15;;;3.22;;
40152;SDS011;26371;56.992;23.912;2023-02-01T02:25:47;16.33;;;4.45;;
40152;SDS011;26371;56.992;23.912;2023-02-01T02:29:04;15.50;;;5.25;;
40152;SDS011;26371;56.992;23.912;2023-02-01T02:32:07;13.32;;;3.78;;
40152;SDS011;26371;56.992;23.912;2023-02-01T02:35:01;14.55;;;3.42;;
40152;SDS011;26371;56.992;23.912;2023-02-01T02:37:35;10.80;;;3.90;;
40152;SDS011;26371;56.992;23.912;2023-02-01T02:40:07;15.18;;;2.92;;
40152;SDS011;26371;56.992;23.912;2023-02-01T02:42:46;18.10;;;4.40;;
40152;SDS011;26371;56.992;23.912;2023-02-01T02:45:41;6.97;;;2.60;;
40152;SDS011;26371;56.992;23.912;2023-02-01T02:51:07;9.90;;;3.17;;
40152;SDS011;26371;56.992;23.912;2023-02-01T02:53:57;7.43;;;3.00;;
40152;SDS011;26371;56.992;23.912;2023-02-01T02:56:49;9.65;;;3.22;;
40152;SDS011;26371;56.992;23.912;2023-02-01T02:59:36;8.32;;;2.70;;
40152;SDS011;26371;56.992;23.912;2023-02-01T03:02:25;6.07;;;2.65;;
40152;SDS011;26371;56.992;23.912;2023-02-01T03:05:13;8.98;;;2.92;;
40152;SDS011;26371;56.992;23.912;2023-02-01T03:07:48;8.05;;;2.85;;
40152;SDS011;26371;56.992;23.912;2023-02-01T03:10:26;10.95;;;2.83;;
40152;SDS011;26371;56.992;23.912;2023-02-01T03:13:02;9.32;;;2.80;;
40152;SDS011;26371;56.992;23.912;2023-02-01T03:15:34;9.23;;;3.08;;
40152;SDS011;26371;56.992;23.912;2023-02-01T03:18:07;8.07;;;3.20;;
40152;SDS011;26371;56.992;23.912;2023-02-01T03:20:41;6.80;;;3.15;;
40152;SDS011;26371;56.992;23.912;2023-02-01T03:23:14;6.75;;;2.75;;
40152;SDS011;26371;56.992;23.912;2023-02-01T03:25:45;9.90;;;3.47;;
40152;SDS011;26371;56.992;23.912;2023-02-01T03:28:16;10.10;;;3.58;;
40152;SDS011;26371;56.992;23.912;2023-02-01T03:30:48;9.43;;;3.78;;
40152;SDS011;26371;56.992;23.912;2023-02-01T03:33:18;10.95;;;3.92;;
40152;SDS011;26371;56.992;23.912;2023-02-01T03:35:50;12.00;;;3.97;;
40152;SDS011;26371;56.992;23.912;2023-02-01T03:38:29;13.30;;;4.05;;
40152;SDS011;26371;56.992;23.912;2023-02-01T03:41:03;10.52;;;3.38;;
40152;SDS011;26371;56.992;23.912;2023-02-01T03:43:39;7.70;;;3.33;;
40152;SDS011;26371;56.992;23.912;2023-02-01T03:46:17;10.43;;;3.90;;
40152;SDS011;26371;56.992;23.912;2023-02-01T03:48:52;11.80;;;4.60;;
40152;SDS011;26371;56.992;23.912;2023-02-01T03:51:22;8.90;;;3.40;;
40152;SDS011;26371;56.992;23.912;2023-02-01T03:53:53;8.40;;;3.88;;
40152;SDS011;26371;56.992;23.912;2023-02-01T03:56:23;7.97;;;3.40;;
40152;SDS011;26371;56.992;23.912;2023-02-01T03:58:55;7.90;;;3.60;;
40152;SDS011;26371;56.992;23.912;2023-02-01T04:01:32;8.38;;;3.78;;
40152;SDS011;26371;56.992;23.912;2023-02-01T04:04:00;8.70;;;4.07;;
40152;SDS011;26371;56.992;23.912;2023-02-01T04:06:30;7.65;;;3.70;;
40152;SDS011;26371;56.992;23.912;2023-02-01T04:09:03;9.65;;;3.90;;
40152;SDS011;26371;56.992;23.912;2023-02-01T04:11:31;8.82;;;3.65;;
40152;SDS011;26371;56.992;23.912;2023-02-01T04:14:00;9.00;;;3.95;;
40152;SDS011;26371;56.992;23.912;2023-02-01T04:16:31;10.73;;;4.53;;
40152;SDS011;26371;56.992;23.912;2023-02-01T04:19:00;11.32;;;4.13;;
40152;SDS011;26371;56.992;23.912;2023-02-01T04:21:29;8.68;;;4.10;;
40152;SDS011;26371;56.992;23.912;2023-02-01T04:23:57;8.45;;;3.95;;
40152;SDS011;26371;56.992;23.912;2023-02-01T04:26:27;10.20;;;4.22;;
40152;SDS011;26371;56.992;23.912;2023-02-01T04:28:56;11.30;;;5.03;;
40152;SDS011;26371;56.992;23.912;2023-02-01T04:31:24;10.27;;;4.38;;
40152;SDS011;26371;56.992;23.912;2023-02-01T04:33:54;10.70;;;5.63;;
40152;SDS011;26371;56.992;23.912;2023-02-01T04:36:24;10.90;;;5.70;;
40152;SDS011;26371;56.992;23.912;2023-02-01T04:38:52;10.07;;;4.68;;
40152;SDS011;26371;56.992;23.912;2023-02-01T04:41:21;10.60;;;5.70;;
40152;SDS011;26371;56.992;23.912;2023-02-01T04:43:50;11.40;;;5.65;;
40152;SDS011;26371;56.992;23.912;2023-02-01T04:46:19;11.10;;;5.90;;
40152;SDS011;26371;56.992;23.912;2023-02-01T04:48:48;12.30;;;5.57;;
40152;SDS011;26371;56.992;23.912;2023-02-01T04:51:16;13.82;;;6.95;;
40152;SDS011;26371;56.992;23.912;2023-02-01T04:53:45;13.57;;;6.50;;
40152;SDS011;26371;56.992;23.912;2023-02-01T04:56:13;11.65;;;5.57;;
40152;SDS011;26371;56.992;23.912;2023-02-01T04:58:42;11.75;;;5.57;;
40152;SDS011;26371;56.992;23.912;2023-02-01T05:01:12;10.20;;;5.30;;
40152;SDS011;26371;56.992;23.912;2023-02-01T05:03:40;11.25;;;5.07;;
40152;SDS011;26371;56.992;23.912;2023-02-01T05:06:09;9.85;;;4.80;;
40152;SDS011;26371;56.992;23.912;2023-02-01T05:08:38;11.98;;;5.38;;
40152;SDS011;26371;56.992;23.912;2023-02-01T05:11:06;10.55;;;5.63;;
40152;SDS011;26371;56.992;23.912;2023-02-01T05:13:54;10.13;;;4.95;;
40152;SDS011;26371;56.992;23.912;2023-02-01T05:16:23;9.63;;;4.80;;
40152;SDS011;26371;56.992;23.912;2023-02-01T05:18:52;9.35;;;5.03;;
40152;SDS011;26371;56.992;23.912;2023-02-01T05:21:21;10.45;;;4.95;;
40152;SDS011;26371;56.992;23.912;2023-02-01T05:23:49;10.73;;;4.80;;
40152;SDS011;26371;56.992;23.912;2023-02-01T05:26:35;10.25;;;4.60;;
40152;SDS011;26371;56.992;23.912;2023-02-01T05:29:05;11.65;;;6.03;;
40152;SDS011;26371;56.992;23.912;2023-02-01T05:31:36;11.88;;;6.05;;
40152;SDS011;26371;56.992;23.912;2023-02-01T05:34:05;11.00;;;5.45;;
40152;SDS011;26371;56.992;23.912;2023-02-01T05:36:33;13.20;;;6.10;;
40152;SDS011;26371;56.992;23.912;2023-02-01T05:39:02;12.87;;;6.73;;
40152;SDS011;26371;56.992;23.912;2023-02-01T05:41:31;11.00;;;6.10;;
40152;SDS011;26371;56.992;23.912;2023-02-01T05:43:59;11.98;;;6.10;;
40152;SDS011;26371;56.992;23.912;2023-02-01T05:46:28;14.95;;;7.63;;
40152;SDS011;26371;56.992;23.912;2023-02-01T05:48:58;17.05;;;10.30;;
40152;SDS011;26371;56.992;23.912;2023-02-01T05:51:27;13.20;;;8.15;;
40152;SDS011;26371;56.992;23.912;2023-02-01T05:53:55;13.48;;;7.97;;
40152;SDS011;26371;56.992;23.912;2023-02-01T05:56:24;14.88;;;8.23;;
40152;SDS011;26371;56.992;23.912;2023-02-01T05:58:53;14.35;;;7.05;;
40152;SDS011;26371;56.992;23.912;2023-02-01T06:01:21;15.65;;;8.32;;
40152;SDS011;26371;56.992;23.912;2023-02-01T06:03:50;22.30;;;11.82;;
40152;SDS011;26371;56.992;23.912;2023-02-01T06:06:20;16.00;;;7.88;;
40152;SDS011;26371;56.992;23.912;2023-02-01T06:08:49;22.13;;;10.18;;
40152;SDS011;26371;56.992;23.912;2023-02-01T06:11:17;19.88;;;8.55;;
40152;SDS011;26371;56.992;23.912;2023-02-01T06:13:57;20.70;;;10.65;;
40152;SDS011;26371;56.992;23.912;2023-02-01T06:16:26;19.33;;;9.53;;
40152;SDS011;26371;56.992;23.912;2023-02-01T06:18:55;20.60;;;10.45;;
40152;SDS011;26371;56.992;23.912;2023-02-01T06:21:24;20.75;;;11.02;;
40152;SDS011;26371;56.992;23.912;2023-02-01T06:23:53;27.02;;;12.48;;
40152;SDS011;26371;56.992;23.912;2023-02-01T06:26:24;18.67;;;10.15;;
40152;SDS011;26371;56.992;23.912;2023-02-01T06:28:55;21.20;;;11.13;;
40152;SDS011;26371;56.992;23.912;2023-02-01T06:31:24;25.38;;;13.20;;
40152;SDS011;26371;56.992;23.912;2023-02-01T06:33:53;16.10;;;9.25;;
40152;SDS011;26371;56.992;23.912;2023-02-01T06:36:21;18.80;;;9.00;;
40152;SDS011;26371;56.992;23.912;2023-02-01T06:38:51;17.92;;;9.48;;
40152;SDS011;26371;56.992;23.912;2023-02-01T06:41:20;17.52;;;9.75;;
40152;SDS011;26371;56.992;23.912;2023-02-01T06:43:48;14.55;;;7.85;;
40152;SDS011;26371;56.992;23.912;2023-02-01T06:46:17;14.05;;;7.32;;
40152;SDS011;26371;56.992;23.912;2023-02-01T06:48:46;13.50;;;6.65;;
40152;SDS011;26371;56.992;23.912;2023-02-01T06:53:46;12.30;;;6.55;;
40152;SDS011;26371;56.992;23.912;2023-02-01T06:56:16;11.60;;;6.20;;
40152;SDS011;26371;56.992;23.912;2023-02-01T06:58:44;12.50;;;6.70;;
40152;SDS011;26371;56.992;23.912;2023-02-01T07:01:13;13.27;;;6.30;;
40152;SDS011;26371;56.992;23.912;2023-02-01T07:03:42;12.15;;;6.32;;
40152;SDS011;26371;56.992;23.912;2023-02-01T07:06:10;11.48;;;6.50;;
40152;SDS011;26371;56.992;23.912;2023-02-01T07:08:39;13.57;;;6.30;;
40152;SDS011;26371;56.992;23.912;2023-02-01T07:11:08;11.80;;;6.25;;
40152;SDS011;26371;56.992;23.912;2023-02-01T07:13:39;19.67;;;9.68;;
40152;SDS011;26371;56.992;23.912;2023-02-01T07:16:09;57.40;;;25.00;;
40152;SDS011;26371;56.992;23.912;2023-02-01T07:18:39;22.67;;;13.68;;
40152;SDS011;26371;56.992;23.912;2023-02-01T07:21:08;14.57;;;7.80;;
40152;SDS011;26371;56.992;23.912;2023-02-01T07:23:37;14.85;;;8.95;;
40152;SDS011;26371;56.992;23.912;2023-02-01T07:26:07;15.23;;;7.07;;
40152;SDS011;26371;56.992;23.912;2023-02-01T07:28:38;23.85;;;16.70;;
40152;SDS011;26371;56.992;23.912;2023-02-01T07:31:08;23.33;;;15.63;;
40152;SDS011;26371;56.992;23.912;2023-02-01T07:33:38;13.68;;;7.50;;
40152;SDS011;26371;56.992;23.912;2023-02-01T07:36:07;16.45;;;6.60;;
40152;SDS011;26371;56.992;23.912;2023-02-01T07:38:38;11.27;;;5.82;;
40152;SDS011;26371;56.992;23.912;2023-02-01T07:41:07;14.57;;;6.47;;
40152;SDS011;26371;56.992;23.912;2023-02-01T07:43:36;14.82;;;6.53;;
40152;SDS011;26371;56.992;23.912;2023-02-01T07:46:06;14.02;;;6.70;;
40152;SDS011;26371;56.992;23.912;2023-02-01T07:48:35;13.07;;;6.88;;
40152;SDS011;26371;56.992;23.912;2023-02-01T07:51:04;11.32;;;6.82;;
40152;SDS011;26371;56.992;23.912;2023-02-01T07:53:34;13.15;;;6.60;;
40152;SDS011;26371;56.992;23.912;2023-02-01T07:56:02;13.68;;;6.90;;
40152;SDS011;26371;56.992;23.912;2023-02-01T08:01:00;14.25;;;7.45;;
40152;SDS011;26371;56.992;23.912;2023-02-01T08:03:47;14.55;;;7.53;;
40152;SDS011;26371;56.992;23.912;2023-02-01T08:06:17;13.45;;;6.63;;
40152;SDS011;26371;56.992;23.912;2023-02-01T08:08:47;12.38;;;6.68;;
40152;SDS011;26371;56.992;23.912;2023-02-01T08:11:16;16.20;;;7.18;;
40152;SDS011;26371;56.992;23.912;2023-02-01T08:13:45;13.25;;;6.53;;
40152;SDS011;26371;56.992;23.912;2023-02-01T08:16:14;12.57;;;6.63;;
40152;SDS011;26371;56.992;23.912;2023-02-01T08:18:45;14.55;;;7.50;;
40152;SDS011;26371;56.992;23.912;2023-02-01T08:21:15;13.57;;;6.78;;
40152;SDS011;26371;56.992;23.912;2023-02-01T08:23:45;13.73;;;7.18;;
40152;SDS011;26371;56.992;23.912;2023-02-01T08:26:14;15.50;;;7.35;;
40152;SDS011;26371;56.992;23.912;2023-02-01T08:28:45;12.82;;;6.57;;
40152;SDS011;26371;56.992;23.912;2023-02-01T08:31:17;13.45;;;6.88;;
40152;SDS011;26371;56.992;23.912;2023-02-01T08:33:48;14.55;;;6.95;;
40152;SDS011;26371;56.992;23.912;2023-02-01T08:36:19;13.95;;;7.13;;
40152;SDS011;26371;56.992;23.912;2023-02-01T08:38:49;14.98;;;6.13;;
40152;SDS011;26371;56.992;23.912;2023-02-01T08:41:18;16.13;;;8.17;;
40152;SDS011;26371;56.992;23.912;2023-02-01T08:43:48;12.43;;;7.10;;
40152;SDS011;26371;56.992;23.912;2023-02-01T08:46:17;13.93;;;7.33;;
40152;SDS011;26371;56.992;23.912;2023-02-01T08:48:45;11.57;;;6.38;;
40152;SDS011;26371;56.992;23.912;2023-02-01T08:51:14;14.27;;;8.37;;
40152;SDS011;26371;56.992;23.912;2023-02-01T08:53:46;14.80;;;6.95;;
40152;SDS011;26371;56.992;23.912;2023-02-01T08:56:16;15.63;;;7.25;;
40152;SDS011;26371;56.992;23.912;2023-02-01T08:58:46;12.95;;;7.00;;
40152;SDS011;26371;56.992;23.912;2023-02-01T09:01:15;14.23;;;6.88;;
40152;SDS011;26371;56.992;23.912;2023-02-01T09:03:44;13.73;;;7.47;;
40152;SDS011;26371;56.992;23.912;2023-02-01T09:06:14;12.73;;;7.72;;
40152;SDS011;26371;56.992;23.912;2023-02-01T09:08:42;14.95;;;7.78;;
40152;SDS011;26371;56.992;23.912;2023-02-01T09:11:13;18.00;;;7.47;;
40152;SDS011;26371;56.992;23.912;2023-02-01T09:13:46;15.45;;;7.68;;
40152;SDS011;26371;56.992;23.912;2023-02-01T09:16:14;13.27;;;7.35;;
40152;SDS011;26371;56.992;23.912;2023-02-01T09:18:43;15.13;;;7.22;;
40152;SDS011;26371;56.992;23.912;2023-02-01T09:21:27;15.32;;;7.38;;
40152;SDS011;26371;56.992;23.912;2023-02-01T09:23:56;16.70;;;8.77;;
40152;SDS011;26371;56.992;23.912;2023-02-01T09:26:26;14.82;;;7.63;;
40152;SDS011;26371;56.992;23.912;2023-02-01T09:28:58;13.82;;;7.78;;
40152;SDS011;26371;56.992;23.912;2023-02-01T09:31:28;15.82;;;8.77;;
40152;SDS011;26371;56.992;23.912;2023-02-01T09:33:56;15.13;;;8.45;;
40152;SDS011;26371;56.992;23.912;2023-02-01T09:36:25;18.38;;;8.68;;
40152;SDS011;26371;56.992;23.912;2023-02-01T09:38:56;16.50;;;8.57;;
40152;SDS011;26371;56.992;23.912;2023-02-01T09:41:29;15.52;;;9.00;;
40152;SDS011;26371;56.992;23.912;2023-02-01T09:44:09;16.20;;;8.95;;
40152;SDS011;26371;56.992;23.912;2023-02-01T09:46:45;16.80;;;8.95;;
40152;SDS011;26371;56.992;23.912;2023-02-01T09:49:15;14.23;;;8.85;;
40152;SDS011;26371;56.992;23.912;2023-02-01T09:51:48;15.85;;;8.35;;
40152;SDS011;26371;56.992;23.912;2023-02-01T09:54:19;14.55;;;7.82;;
40152;SDS011;26371;56.992;23.912;2023-02-01T09:56:53;17.50;;;8.45;;
40152;SDS011;26371;56.992;23.912;2023-02-01T09:59:29;16.77;;;8.35;;
40152;SDS011;26371;56.992;23.912;2023-02-01T10:02:01;17.60;;;8.63;;
40152;SDS011;26371;56.992;23.912;2023-02-01T10:04:32;15.50;;;9.05;;
40152;SDS011;26371;56.992;23.912;2023-02-01T10:07:03;14.10;;;7.68;;
40152;SDS011;26371;56.992;23.912;2023-02-01T10:09:42;15.43;;;8.00;;
40152;SDS011;26371;56.992;23.912;2023-02-01T10:12:39;13.02;;;7.22;;
40152;SDS011;26371;56.992;23.912;2023-02-01T10:15:30;15.70;;;7.63;;
40152;SDS011;26371;56.992;23.912;2023-02-01T10:18:11;13.95;;;7.18;;
40152;SDS011;26371;56.992;23.912;2023-02-01T10:20:51;16.90;;;8.55;;
40152;SDS011;26371;56.992;23.912;2023-02-01T10:26:44;13.35;;;7.00;;
40152;SDS011;26371;56.992;23.912;2023-02-01T10:29:15;15.10;;;7.40;;
40152;SDS011;26371;56.992;23.912;2023-02-01T10:31:46;14.50;;;8.07;;
40152;SDS011;26371;56.992;23.912;2023-02-01T10:34:16;15.43;;;8.40;;
40152;SDS011;26371;56.992;23.912;2023-02-01T10:36:52;12.27;;;7.30;;
40152;SDS011;26371;56.992;23.912;2023-02-01T10:39:23;17.20;;;8.02;;
40152;SDS011;26371;56.992;23.912;2023-02-01T10:41:52;16.40;;;9.23;;
40152;SDS011;26371;56.992;23.912;2023-02-01T10:44:26;17.55;;;9.10;;
40152;SDS011;26371;56.992;23.912;2023-02-01T10:46:57;16.80;;;9.35;;
40152;SDS011;26371;56.992;23.912;2023-02-01T10:49:26;16.73;;;9.65;;
40152;SDS011;26371;56.992;23.912;2023-02-01T10:52:02;17.70;;;9.68;;
40152;SDS011;26371;56.992;23.912;2023-02-01T10:54:39;18.42;;;10.07;;
40152;SDS011;26371;56.992;23.912;2023-02-01T10:57:08;17.20;;;9.73;;
40152;SDS011;26371;56.992;23.912;2023-02-01T11:02:15;16.38;;;9.43;;
40152;SDS011;26371;56.992;23.912;2023-02-01T11:04:47;16.95;;;10.00;;
40152;SDS011;26371;56.992;23.912;2023-02-01T11:07:17;18.08;;;9.82;;
40152;SDS011;26371;56.992;23.912;2023-02-01T11:09:52;15.75;;;9.13;;
40152;SDS011;26371;56.992;23.912;2023-02-01T11:12:28;17.33;;;9.88;;
40152;SDS011;26371;56.992;23.912;2023-02-01T11:15:01;18.95;;;10.43;;
40152;SDS011;26371;56.992;23.912;2023-02-01T11:17:40;14.93;;;9.25;;
40152;SDS011;26371;56.992;23.912;2023-02-01T11:20:13;16.15;;;9.27;;
40152;SDS011;26371;56.992;23.912;2023-02-01T11:22:48;17.08;;;9.55;;
40152;SDS011;26371;56.992;23.912;2023-02-01T11:25:21;19.65;;;10.63;;
40152;SDS011;26371;56.992;23.912;2023-02-01T11:27:53;20.20;;;10.07;;
40152;SDS011;26371;56.992;23.912;2023-02-01T11:30:29;18.40;;;10.20;;
40152;SDS011;26371;56.992;23.912;2023-02-01T11:33:01;17.38;;;10.10;;
40152;SDS011;26371;56.992;23.912;2023-02-01T11:35:32;18.60;;;10.40;;
40152;SDS011;26371;56.992;23.912;2023-02-01T11:38:11;16.73;;;10.00;;
40152;SDS011;26371;56.992;23.912;2023-02-01T11:40:46;19.35;;;10.55;;
40152;SDS011;26371;56.992;23.912;2023-02-01T11:43:17;18.67;;;10.88;;
40152;SDS011;26371;56.992;23.912;2023-02-01T11:45:56;21.40;;;11.90;;
40152;SDS011;26371;56.992;23.912;2023-02-01T11:48:26;22.02;;;12.38;;
40152;SDS011;26371;56.992;23.912;2023-02-01T11:51:05;22.58;;;12.90;;
40152;SDS011;26371;56.992;23.912;2023-02-01T11:54:02;18.92;;;11.25;;
40152;SDS011;26371;56.992;23.912;2023-02-01T11:56:40;23.60;;;11.43;;
40152;SDS011;26371;56.992;23.912;2023-02-01T11:59:27;21.13;;;11.75;;
40152;SDS011;26371;56.992;23.912;2023-02-01T12:02:17;21.35;;;10.60;;
40152;SDS011;26371;56.992;23.912;2023-02-01T12:05:00;39.05;;;16.92;;
40152;SDS011;26371;56.992;23.912;2023-02-01T12:07:43;54.72;;;19.52;;
40152;SDS011;26371;56.992;23.912;2023-02-01T12:10:28;45.38;;;19.10;;
40152;SDS011;26371;56.992;23.912;2023-02-01T12:13:09;45.78;;;20.30;;
40152;SDS011;26371;56.992;23.912;2023-02-01T12:15:48;53.92;;;21.83;;
40152;SDS011;26371;56.992;23.912;2023-02-01T12:21:38;29.98;;;15.27;;
40152;SDS011;26371;56.992;23.912;2023-02-01T12:24:28;31.30;;;15.80;;
40152;SDS011;26371;56.992;23.912;2023-02-01T12:27:36;25.98;;;14.85;;
40152;SDS011;26371;56.992;23.912;2023-02-01T12:30:29;34.28;;;18.50;;
40152;SDS011;26371;56.992;23.912;2023-02-01T12:33:15;34.60;;;18.02;;
40152;SDS011;26371;56.992;23.912;2023-02-01T12:35:55;34.38;;;17.83;;
40152;SDS011;26371;56.992;23.912;2023-02-01T12:38:39;35.85;;;18.23;;
40152;SDS011;26371;56.992;23.912;2023-02-01T12:41:24;28.55;;;16.38;;
40152;SDS011;26371;56.992;23.912;2023-02-01T12:44:01;31.17;;;16.80;;
40152;SDS011;26371;56.992;23.912;2023-02-01T12:46:33;28.90;;;15.48;;
40152;SDS011;26371;56.992;23.912;2023-02-01T12:49:10;24.92;;;13.93;;
40152;SDS011;26371;56.992;23.912;2023-02-01T12:51:44;22.13;;;13.60;;
40152;SDS011;26371;56.992;23.912;2023-02-01T12:54:18;26.15;;;14.88;;
40152;SDS011;26371;56.992;23.912;2023-02-01T12:56:55;27.88;;;16.75;;
40152;SDS011;26371;56.992;23.912;2023-02-01T12:59:30;27.75;;;17.60;;
40152;SDS011;26371;56.992;23.912;2023-02-01T13:02:04;29.52;;;16.58;;
40152;SDS011;26371;56.992;23.912;2023-02-01T13:04:44;25.33;;;15.10;;
40152;SDS011;26371;56.992;23.912;2023-02-01T13:07:28;26.70;;;15.27;;
40152;SDS011;26371;56.992;23.912;2023-02-01T13:10:03;21.83;;;13.65;;
40152;SDS011;26371;56.992;23.912;2023-02-01T13:12:40;24.92;;;13.88;;
40152;SDS011;26371;56.992;23.912;2023-02-01T13:15:16;29.35;;;16.08;;
40152;SDS011;26371;56.992;23.912;2023-02-01T13:17:48;27.50;;;15.85;;
40152;SDS011;26371;56.992;23.912;2023-02-01T13:20:21;26.42;;;15.07;;
40152;SDS011;26371;56.992;23.912;2023-02-01T13:22:59;29.60;;;16.58;;
40152;SDS011;26371;56.992;23.912;2023-02-01T13:25:32;27.73;;;15.38;;
40152;SDS011;26371;56.992;23.912;2023-02-01T13:28:06;27.60;;;14.77;;
40152;SDS011;26371;56.992;23.912;2023-02-01T13:30:45;27.30;;;14.50;;
40152;SDS011;26371;56.992;23.912;2023-02-01T13:33:26;29.23;;;15.20;;
40152;SDS011;26371;56.992;23.912;2023-02-01T13:36:34;23.02;;;13.65;;
40152;SDS011;26371;56.992;23.912;2023-02-01T13:42:34;22.90;;;12.50;;
40152;SDS011;26371;56.992;23.912;2023-02-01T13:45:13;24.60;;;13.38;;
40152;SDS011;26371;56.992;23.912;2023-02-01T13:47:45;23.73;;;14.18;;
40152;SDS011;26371;56.992;23.912;2023-02-01T13:50:20;25.13;;;13.95;;
40152;SDS011;26371;56.992;23.912;2023-02-01T13:52:53;26.20;;;15.20;;
40152;SDS011;26371;56.992;23.912;2023-02-01T13:55:34;24.67;;;14.48;;
40152;SDS011;26371;56.992;23.912;2023-02-01T13:58:15;23.00;;;13.35;;
40152;SDS011;26371;56.992;23.912;2023-02-01T14:00:48;41.97;;;20.70;;
40152;SDS011;26371;56.992;23.912;2023-02-01T14:03:19;29.13;;;15.35;;
40152;SDS011;26371;56.992;23.912;2023-02-01T14:05:56;26.80;;;14.70;;
40152;SDS011;26371;56.992;23.912;2023-02-01T14:08:44;53.72;;;26.63;;
40152;SDS011;26371;56.992;23.912;2023-02-01T14:11:38;54.10;;;27.30;;
40152;SDS011;26371;56.992;23.912;2023-02-01T14:23:25;43.38;;;25.08;;
40152;SDS011;26371;56.992;23.912;2023-02-01T14:26:04;39.97;;;22.70;;
40152;SDS011;26371;56.992;23.912;2023-02-01T14:28:40;42.35;;;23.20;;
40152;SDS011;26371;56.992;23.912;2023-02-01T14:34:24;36.53;;;20.38;;
40152;SDS011;26371;56.992;23.912;2023-02-01T14:37:00;35.42;;;20.08;;
40152;SDS011;26371;56.992;23.912;2023-02-01T14:39:32;33.97;;;20.15;;
40152;SDS011;26371;56.992;23.912;2023-02-01T14:42:19;32.53;;;18.15;;
40152;SDS011;26371;56.992;23.912;2023-02-01T14:44:53;35.78;;;18.00;;
40152;SDS011;26371;56.992;23.912;2023-02-01T14:47:29;34.00;;;20.15;;
40152;SDS011;26371;56.992;23.912;2023-02-01T14:50:02;28.80;;;17.17;;
40152;SDS011;26371;56.992;23.912;2023-02-01T14:52:47;28.13;;;14.68;;
40152;SDS011;26371;56.992;23.912;2023-02-01T14:55:21;25.15;;;12.82;;
40152;SDS011;26371;56.992;23.912;2023-02-01T14:57:55;29.48;;;15.75;;
40152;SDS011;26371;56.992;23.912;2023-02-01T15:00:29;27.83;;;16.50;;
40152;SDS011;26371;56.992;23.912;2023-02-01T15:03:13;24.45;;;11.38;;
40152;SDS011;26371;56.992;23.912;2023-02-01T15:05:54;19.33;;;9.07;;
40152;SDS011;26371;56.992;23.912;2023-02-01T15:08:25;17.35;;;9.35;;
40152;SDS011;26371;56.992;23.912;2023-02-01T15:10:55;17.15;;;8.95;;
40152;SDS011;26371;56.992;23.912;2023-02-01T15:13:28;16.98;;;8.60;;
40152;SDS011;26371;56.992;23.912;2023-02-01T15:16:02;16.27;;;8.40;;
40152;SDS011;26371;56.992;23.912;2023-02-01T15:18:32;13.80;;;7.13;;
40152;SDS011;26371;56.992;23.912;2023-02-01T15:21:01;16.83;;;8.73;;
40152;SDS011;26371;56.992;23.912;2023-02-01T15:23:54;14.32;;;6.95;;
40152;SDS011;26371;56.992;23.912;2023-02-01T15:26:38;18.95;;;10.73;;
40152;SDS011;26371;56.992;23.912;2023-02-01T15:29:10;15.88;;;8.57;;
40152;SDS011;26371;56.992;23.912;2023-02-01T15:31:41;14.15;;;7.05;;
40152;SDS011;26371;56.992;23.912;2023-02-01T15:34:11;13.50;;;7.05;;
40152;SDS011;26371;56.992;23.912;2023-02-01T15:36:40;14.50;;;7.93;;
40152;SDS011;26371;56.992;23.912;2023-02-01T15:39:25;15.60;;;7.65;;
40152;SDS011;26371;56.992;23.912;2023-02-01T15:41:56;46.60;;;24.38;;